Terminal Aerodrome Forecast
Issued by NWS

Home | Current Version | Previous Version | Text Only | Print | Product List | Glossary On
Versions: 1 2 3 4 5 6 7 8 9 10 11 12 13 14 15 16
858
FTUS43 KMPX 212338
TAFRWF
TAF
KRWF 212338Z 2200/2224 28011KT P6SM VCSH OVC050
     FM220100 28010KT P6SM BKN080
     FM220500 28008KT P6SM SCT100 SCT250
     FM222200 21006KT P6SM SCT250=

USA.gov is the U.S. government's official web portal to all federal, state and local government web resources and services.